Valdosta, GA

5:44 AM EST on January 16, 2017 (GMT -0500)
Valdosta Regional | | Change Station

Elev 200 ft 30.78 °N, 83.28 °W | Updated 51 minutes ago

Overcast
Overcast
59 °F
Feels Like 59 °F
N
0
Wind Variable Wind from North

Today
High -- | Low -- °F
--% Chance of Precip.
Yesterday
High -- | Low -- °F
Precip. -- in
Pressure 30.26 in
Visibility 10.0 miles
Clouds Few 4500 ft
Overcast 6500 ft
Dew Point 57 °F
Humidity 93%
Rainfall 0.00 in
Snow Depth Not available.
7:31 AM 5:55 PM
Waning Gibbous, 82% visible
METAR KVLD 160953Z AUTO 00000KT 10SM FEW045 OVC065 15/14 A3024 RMK AO2 SLP246 T01500139
Pressure 30.26 in
Visibility 10.0 miles
Clouds Few 4500 ft
Overcast 6500 ft
Dew Point 57 °F
Humidity 93%
Rainfall 0.00 in
Snow Depth Not available.
7:31 AM 5:55 PM
Waning Gibbous, 82% visible
METAR KVLD 160953Z AUTO 00000KT 10SM FEW045 OVC065 15/14 A3024 RMK AO2 SLP246 T01500139

Get Your Daily Forecast Email!

Thanks for signing up!

Be on the lookout for a verification email in your inbox.

You'll start receiving the daily forecast at 8 AM.

×

10-Day Weather Forecast

Almanac

Astronomy

Jan. 16, 2017 Rise Set
Actual Time
Civil Twilight
Nautical Twilight
Astronomical Twilight
Moon
Length of Visible Light
Length of Day
Tomorrow will be .
, % of the Moon is Illuminated

Today's Extremes

State Highs State Lows

Community

WunderPhotos

Upload Photos

1,962,540 photos uploaded!

WunderBlog® & News

Nearby

Air Quality

  Air Quality AQ Index Pollutant
Not available.

Snow Depth

Station Depth Elevation

Earthquake Activity

City Distance Mag. Time & Date
Minimum magnitude displayed is 2.5.

Coastal Water Temperatures

Place Temperature

Stations

Nearby Weather Stations

Station Location Temp. Windchill Dew Point Humidity Wind Precip. Elev Updated Type
                   

Watches & Warnings

There are currently no watches in effect.